Capitol Logistics 315


KMCI
Kansas City International Airport
Kansas City, Missouri, US
KLAX
Los Angeles International Airport
Los Angeles, California, US

Route Details

Aircraft Information
Primary: Boeing 767-300BDSF
Backup: Boeing 757-200SF
Route Data
Distance: 1184nm
Sched. Duration: 3h 29m
Avg. Duration: 3h 10m (-19m)
Times Flown: 4
Recm'd Route: WL5 SLN KD45W ALS TBC JASSE Q90 DNERO ANJLL4
Planned Altitude: 34,000ft
Origin Wx: KMCI 290453Z 04007KT 10SM OVC075 08/00 A2992 RMK AO2 SLP136 T00780000
Dest. Wx: KLAX 290453Z 23005KT 10SM CLR 17/08 A3002 RMK AO2 SLP164 T01720083 $
Notes: METROAIR CARGO SUPPORT

Financial History
Total Freight: 323,797lbs
Average Load: 80,949lbs/flt
Fuel Used: 128,407lbs
Avg. Fuel Used: 32,102lbs/flt
Fuel Expense: $141,248
Avg. Fuel Expense: $35,312
Avg. Fuel Cost: $1.10/lbs
Total Gross Income: $479,256
Pilot Pay: $636
Total Expenses: $51,968
Total Revenue: $283,345
Average Revenue: $119,814.05